Strona główna
METAR-TAF:

METAR-TAF

Lotnisko :

São José do Rio Preto, São Paulo, Brazylia

Szerokość geograficzna: 20-48-58S, Długość geograficzna: 049-24-17W, wysokość: 543 m

Aktualna obserwacja pogody

Raport powstał 1 godzina i 2 minut temu, godzina 13:00 UTC
Wiatr 8 kt od południowo-południowy wschód
Temperatura 27°C
Wilgotność 62%
Ciśnienie 1014 hPa
Widzialność 10 km lub więcej
Brak chmur poniżej 1500 m i brak chmur cumulonimbus

METAR: SBSR 201300Z 15008KT CAVOK 27/19 Q1014

czas: 12:02 (14:02 UTC)


TAF: brakujący

Obserwacja i prognoza pogody dla ponad 4000 lotnisk (raport METAR i TAF).

Dostępne stacje oznaczono żółtymi i czerwonymi punktami na mapie.

Najedź kursorem aby zobaczyć nazwę stacji.

Kliknij aby zobaczyć obserwacje i prognozy pogody.

Aby zmienić mapę: kliknij na zielony przycisk z czarnym krzyżykiem, aby powiększyć; na zielony przycisk z myślnikiem, aby pomniejszyć; na zielone strzałki, aby przejść do map sąsiednich.


METAR-TAF: